Airfield :
LOGIN :

Register | Disclaimer

   EN    FR    IT 

 










Legend :    VFR   Marginal VFR   IFR   Intensive IFR   Very Intensive IFR
Visi :
Ceiling :
>= 8 km
>= 3000ft
5 to 8 km
1000 to 3000 ft
1500m to 5 km
500 to 1000 ft
800 to 1500m
200 to 500 ft
< 800m
< 200 ft
Symbols :   Thunderstorms  Fog  Heavy snow  Heavy precipitations  Wind > 20 kt
SIGMETs :     Misc.  Thunderstorms  Icing  Turbulence  Mountain Waves  Volcanic Ashes






- Airport Elevation : 1302 ft
- IATA code : GNB


LFLS - Grenoble / St. Geoirs

CURRENT METAR :
  • 250430Z AUTO 08007KT CAVOK 07/06 Q1013 TEMPO 1300 MIFG

EXPIRED METARs :
  • 250400Z AUTO 06007KT CAVOK 07/07 Q1014 TEMPO 1300 MIFG
  • 250330Z AUTO 07006KT 040V130 CAVOK 08/07 Q1014 TEMPO 1300 MIFG
  • 250300Z AUTO 08007KT 060V140 CAVOK 07/06 Q1014 TEMPO 1300 MIFG
  • 250230Z AUTO 05003KT 020V100 CAVOK 08/06 Q1014
  • 250200Z AUTO 05006KT CAVOK 08/07 Q1015

TAF TAF LFLS
Valid from the 25 at 03:00 until the 26 at 03:00 UTC


250200Z 2503/2603 09006KT CAVOK
PROB30
TEMPO 2504/2508 1300 MIFG
BECMG 2509/2511 24013KT
BECMG 2522/2524 VRB03KT -RA BKN030
TEMPO 2522/2603 2000 RA BKN008 SCT070CB
ATIS : +33 4 76 65 55 89



MET'MAP, your aeronautical weather chart ! - Copyright ORBIFLY December 2007 - Disclaimer

ORBIFLY MET'MAP TEAM :

Programming & Development : Alexandra Zaïnal
Concept & original design : Baudouin d'Aumeries
Assistance for programming : Marc-Olivier Méhu
Technical & hardware support : Manuel Goepfert

Contact : metmap@orbifly.com




SOURCES & CREDITS :

   NOAA